Time;durP1;ratioP1;P1;durP2;ratioP2;P2;SDS_P1;SDS_P2;PMS_P1;PMS_P2;Temp;Humidity;BMP_temperature;BMP_pressure;BME280_temperature;BME280_humidity;BME280_pressure;Samples;Min_cycle;Max_cycle;Signal;HPM_P1;HPM_P2
2020/12/30 00:01:25;;;;;;;17.95;7.15;;;;;;;3.92;73.51;99019.78;5133927;27;20098;-82
2020/12/30 00:03:50;;;;;;;15.68;7.15;;;;;;;3.75;74.13;99018.25;5133410;27;20546;-82
2020/12/30 00:06:20;;;;;;;18.23;7.60;;;;;;;3.94;74.26;99027.47;5134263;27;20082;-82
2020/12/30 00:08:47;;;;;;;14.55;7.05;;;;;;;3.98;72.81;99034.97;5132714;27;20031;-82
2020/12/30 00:11:13;;;;;;;10.43;5.03;;;;;;;3.81;73.20;99037.81;5133399;27;20019;-82
2020/12/30 00:13:38;;;;;;;13.40;5.80;;;;;;;3.66;73.90;99041.34;5133352;27;20387;-82
2020/12/30 00:16:04;;;;;;;8.70;5.22;;;;;;;3.52;74.89;99037.81;5133429;27;20098;-82
2020/12/30 00:18:29;;;;;;;16.55;6.20;;;;;;;3.65;74.10;99043.06;5117017;27;20469;-82
2020/12/30 00:20:56;;;;;;;15.23;6.57;;;;;;;3.52;74.74;99043.00;5112879;28;20382;-82
2020/12/30 00:23:22;;;;;;;16.50;8.10;;;;;;;3.60;74.76;99033.94;5112712;28;20016;-83
2020/12/30 00:25:48;;;;;;;22.90;11.00;;;;;;;3.81;73.79;99027.41;5112784;28;20036;-82
2020/12/30 00:28:13;;;;;;;17.67;7.47;;;;;;;3.56;74.87;99039.28;5112619;28;20418;-82
2020/12/30 00:30:38;;;;;;;15.30;6.22;;;;;;;3.84;73.88;99034.16;5112659;28;20480;-82
2020/12/30 00:33:04;;;;;;;15.30;5.97;;;;;;;3.97;73.00;99045.47;5112531;28;20439;-82
2020/12/30 00:35:29;;;;;;;9.35;5.18;;;;;;;3.94;72.04;99040.44;5112639;28;20043;-82
2020/12/30 00:37:54;;;;;;;7.60;4.43;;;;;;;3.88;73.13;99044.25;5112313;28;20046;-82
2020/12/30 00:40:19;;;;;;;8.07;4.15;;;;;;;3.77;74.28;99046.69;5112744;28;20503;-82
2020/12/30 00:42:45;;;;;;;11.73;4.53;;;;;;;3.77;73.90;99046.69;5112690;28;20032;-82
2020/12/30 00:45:10;;;;;;;5.90;4.35;;;;;;;3.94;74.17;99037.84;5112660;28;20085;-82
2020/12/30 00:47:36;;;;;;;12.80;4.53;;;;;;;3.78;74.29;99036.22;5112337;28;20519;-82
2020/12/30 00:50:03;;;;;;;7.47;4.20;;;;;;;3.85;73.44;99034.09;5112441;28;20027;-82
2020/12/30 00:52:28;;;;;;;8.95;4.00;;;;;;;3.87;74.15;99033.97;5112079;28;20509;-82
2020/12/30 00:54:54;;;;;;;7.32;3.55;;;;;;;3.94;74.01;99038.69;5128414;28;20066;-82
2020/12/30 00:57:20;;;;;;;7.80;2.90;;;;;;;4.04;73.81;99044.13;5132665;28;20019;-82
2020/12/30 00:59:45;;;;;;;9.18;3.95;;;;;;;3.93;73.95;99036.19;5132776;27;20441;-81
2020/12/30 01:02:11;;;;;;;5.28;3.22;;;;;;;4.10;73.40;99033.34;5132817;27;20031;-82
2020/12/30 01:04:36;;;;;;;6.78;4.63;;;;;;;4.07;73.83;99037.91;5132599;27;20084;-81
2020/12/30 01:07:02;;;;;;;7.78;3.60;;;;;;;4.04;73.29;99038.13;5133058;28;20051;-82
2020/12/30 01:09:27;;;;;;;9.05;4.45;;;;;;;4.07;73.71;99040.50;5117800;27;20363;-82
2020/12/30 01:12:00;;;;;;;5.65;3.20;;;;;;;4.04;73.58;99038.13;5112156;28;20027;-82
2020/12/30 01:14:26;;;;;;;9.40;3.70;;;;;;;3.91;74.15;99043.22;5112627;28;20035;-82
2020/12/30 01:16:52;;;;;;;9.90;4.05;;;;;;;4.06;73.58;99051.84;5116341;28;20089;-82
2020/12/30 01:19:19;;;;;;;12.10;3.88;;;;;;;4.01;73.85;99046.94;5116229;28;20088;-81
2020/12/30 01:21:45;;;;;;;14.63;4.15;;;;;;;3.98;73.53;99047.94;5116297;28;20389;-81
2020/12/30 01:24:11;;;;;;;6.63;3.97;;;;;;;4.01;74.13;99053.88;5129495;27;20102;-82
2020/12/30 01:26:37;;;;;;;10.48;3.50;;;;;;;3.67;75.55;99048.19;5136621;27;20541;-82
2020/12/30 01:29:04;;;;;;;8.23;3.30;;;;;;;3.91;74.68;99038.88;5136654;27;20030;-82
2020/12/30 01:31:31;;;;;;;6.90;3.17;;;;;;;3.99;74.32;99048.81;5136553;27;20023;-81
2020/12/30 01:33:57;;;;;;;9.30;3.50;;;;;;;4.05;74.14;99051.00;5136272;27;20480;-82
2020/12/30 01:36:23;;;;;;;10.43;3.92;;;;;;;4.15;73.90;99051.28;5136471;27;20060;-81
2020/12/30 01:38:49;;;;;;;4.18;2.78;;;;;;;4.18;73.66;99056.25;5135570;27;20023;-81
2020/12/30 01:41:15;;;;;;;10.90;3.63;;;;;;;4.20;73.45;99063.97;5136367;27;20428;-81
2020/12/30 01:43:40;;;;;;;6.85;2.90;;;;;;;4.26;73.64;99077.38;5136640;27;20027;-82
2020/12/30 01:46:06;;;;;;;5.40;2.88;;;;;;;4.28;73.86;99082.50;5136121;27;20366;-82
2020/12/30 01:48:34;;;;;;;8.90;2.72;;;;;;;4.22;74.24;99075.09;5136666;27;20030;-82
2020/12/30 01:51:00;;;;;;;9.10;3.10;;;;;;;4.24;73.34;99076.66;5134949;27;20062;-82
2020/12/30 01:53:25;;;;;;;7.35;3.00;;;;;;;4.13;74.04;99074.75;5135720;27;20069;-81
2020/12/30 01:55:54;;;;;;;8.50;3.03;;;;;;;4.26;74.12;99079.97;5139359;27;20015;-81
2020/12/30 01:58:19;;;;;;;8.23;3.10;;;;;;;4.37;73.82;99077.53;5141961;27;20503;-82
2020/12/30 02:00:52;;;;;;;3.63;2.53;;;;;;;4.44;73.29;99090.16;5141134;27;20027;-82
2020/12/30 02:03:18;;;;;;;3.83;2.45;;;;;;;4.42;73.42;99097.22;5135936;27;20329;-82
2020/12/30 02:05:43;;;;;;;3.58;2.30;;;;;;;4.37;72.09;99092.31;5135896;27;20122;-82
2020/12/30 02:08:09;;;;;;;7.85;2.72;;;;;;;4.33;73.37;99096.03;5124195;27;20485;-82
2020/12/30 02:10:34;;;;;;;3.47;2.30;;;;;;;4.32;72.88;99105.56;5115421;28;20026;-82
2020/12/30 02:12:59;;;;;;;4.32;2.80;;;;;;;4.31;73.05;99111.72;5113612;28;20411;-82
2020/12/30 02:15:30;;;;;;;4.20;2.20;;;;;;;4.33;73.51;99112.47;5115246;28;20020;-82
2020/12/30 02:17:57;;;;;;;3.78;2.45;;;;;;;4.32;73.37;99121.16;5133596;27;20015;-82
2020/12/30 02:20:23;;;;;;;4.93;2.25;;;;;;;4.25;72.92;99113.88;5133822;27;20058;-82
2020/12/30 02:22:56;;;;;;;11.88;2.92;;;;;;;4.22;73.72;99127.06;5135845;27;20146;-82
2020/12/30 02:25:21;;;;;;;7.15;2.53;;;;;;;4.30;73.23;99132.59;5135104;27;20076;-82
2020/12/30 02:27:46;;;;;;;5.45;2.83;;;;;;;4.26;72.81;99116.34;5135531;27;20019;-82
2020/12/30 02:30:13;;;;;;;6.03;2.45;;;;;;;4.29;73.49;99111.00;5135508;27;20023;-82
2020/12/30 02:32:39;;;;;;;5.63;2.40;;;;;;;4.37;73.20;99120.91;5135242;27;20027;-82
2020/12/30 02:35:04;;;;;;;8.27;2.55;;;;;;;4.35;72.69;99131.38;5134426;27;20071;-81
2020/12/30 02:37:29;;;;;;;4.70;2.85;;;;;;;4.15;72.68;99124.00;5135082;27;20102;-81
2020/12/30 02:39:55;;;;;;;7.68;2.25;;;;;;;4.04;73.19;99135.03;5135196;27;20023;-82
2020/12/30 02:42:20;;;;;;;6.97;2.38;;;;;;;4.10;73.72;99136.44;5135173;27;20384;-82
2020/12/30 02:44:45;;;;;;;5.50;2.28;;;;;;;4.15;73.92;99130.03;5133785;27;20039;-82
2020/12/30 02:47:11;;;;;;;5.22;2.80;;;;;;;4.00;74.29;99130.13;5134930;27;20024;-82
2020/12/30 02:49:36;;;;;;;7.50;2.78;;;;;;;4.09;74.20;99145.19;5134248;27;20061;-82
2020/12/30 02:52:01;;;;;;;5.35;2.83;;;;;;;4.05;73.78;99133.28;5135176;27;20022;-84
2020/12/30 02:54:27;;;;;;;3.58;2.78;;;;;;;4.26;73.44;99126.75;5134955;27;20035;-82
2020/12/30 02:56:52;;;;;;;8.60;2.78;;;;;;;4.21;73.71;99133.19;5135093;27;20084;-83
2020/12/30 02:59:18;;;;;;;5.65;2.20;;;;;;;4.25;72.41;99145.88;5133112;27;20041;-84
2020/12/30 03:01:43;;;;;;;5.18;2.47;;;;;;;4.24;72.86;99152.00;5134821;27;20033;-84
2020/12/30 03:04:08;;;;;;;5.85;2.70;;;;;;;4.03;73.91;99150.72;5132913;27;20462;-84
2020/12/30 03:06:34;;;;;;;6.82;2.40;;;;;;;4.06;73.24;99150.53;5135110;27;20110;-84
2020/12/30 03:08:59;;;;;;;5.05;2.92;;;;;;;4.27;73.39;99151.00;5134522;27;20035;-84
2020/12/30 03:11:25;;;;;;;7.20;2.45;;;;;;;4.37;73.63;99154.69;5133714;27;20027;-82
2020/12/30 03:13:51;;;;;;;6.80;2.58;;;;;;;4.41;73.23;99156.16;5127943;27;20495;-84
2020/12/30 03:16:16;;;;;;;4.10;2.30;;;;;;;4.41;72.75;99157.94;5113772;28;20023;-83
2020/12/30 03:18:41;;;;;;;4.32;2.67;;;;;;;4.17;71.72;99155.91;5114064;28;20477;-83
2020/12/30 03:21:07;;;;;;;7.55;2.92;;;;;;;3.70;74.07;99159.63;5114044;28;20036;-83
2020/12/30 03:23:32;;;;;;;6.10;2.25;;;;;;;4.09;73.46;99158.16;5113970;28;20031;-83
2020/12/30 03:25:58;;;;;;;5.25;2.70;;;;;;;4.15;73.17;99155.19;5112609;28;20035;-83
2020/12/30 03:28:23;;;;;;;4.10;2.03;;;;;;;4.29;73.12;99160.34;5114003;28;20028;-83
2020/12/30 03:30:48;;;;;;;5.55;2.65;;;;;;;4.36;73.08;99166.84;5113820;28;20493;-83
2020/12/30 03:33:14;;;;;;;7.25;2.60;;;;;;;4.34;73.76;99160.06;5113772;28;20333;-83
2020/12/30 03:35:39;;;;;;;8.65;2.75;;;;;;;4.52;73.87;99164.13;5113806;28;20484;-84
2020/12/30 03:38:05;;;;;;;5.53;2.53;;;;;;;4.55;73.74;99160.50;5112473;28;20023;-84
2020/12/30 03:40:30;;;;;;;5.40;2.38;;;;;;;4.65;73.88;99158.16;5113725;28;20034;-84
2020/12/30 03:42:55;;;;;;;3.88;2.50;;;;;;;4.72;73.58;99154.22;5113672;28;20051;-84
2020/12/30 03:45:21;;;;;;;3.72;2.10;;;;;;;4.73;73.33;99156.72;5113209;28;20051;-84
2020/12/30 03:47:46;;;;;;;4.70;2.30;;;;;;;4.66;73.46;99141.59;5113344;28;20027;-84
2020/12/30 03:50:11;;;;;;;6.45;2.13;;;;;;;4.74;73.51;99137.59;5113450;28;20023;-84
2020/12/30 03:52:37;;;;;;;6.40;3.00;;;;;;;4.71;73.95;99142.16;5131957;27;20487;-83
2020/12/30 03:55:03;;;;;;;6.93;2.72;;;;;;;4.84;73.57;99134.38;5133797;27;20027;-83
2020/12/30 03:57:28;;;;;;;8.40;2.47;;;;;;;4.86;73.95;99148.13;5133754;27;20030;-83
2020/12/30 03:59:53;;;;;;;4.25;2.15;;;;;;;4.89;73.47;99150.53;5124051;27;20028;-83
2020/12/30 04:02:19;;;;;;;6.72;2.90;;;;;;;4.94;73.99;99148.50;5113144;28;20107;-83
2020/12/30 04:04:44;;;;;;;6.60;2.35;;;;;;;4.90;74.05;99147.84;5111617;28;20115;-83
2020/12/30 04:07:10;;;;;;;3.83;1.92;;;;;;;5.00;73.41;99153.28;5112352;28;20028;-83
2020/12/30 04:09:36;;;;;;;6.63;2.08;;;;;;;5.01;73.30;99152.34;5113045;28;20072;-84
2020/12/30 04:12:01;;;;;;;4.45;2.58;;;;;;;5.00;73.30;99148.09;5112910;28;20540;-83
2020/12/30 04:14:27;;;;;;;8.43;2.55;;;;;;;4.92;72.94;99152.97;5113159;28;20127;-82
2020/12/30 04:16:54;;;;;;;5.82;2.58;;;;;;;4.94;72.96;99154.50;5112788;28;20465;-83
2020/12/30 04:19:20;;;;;;;4.38;2.17;;;;;;;4.94;72.64;99156.28;5113113;27;20023;-83
2020/12/30 04:21:45;;;;;;;4.07;2.10;;;;;;;4.94;73.06;99154.50;5112691;28;20437;-83
2020/12/30 04:24:10;;;;;;;8.52;2.42;;;;;;;4.80;72.73;99157.19;5111669;28;20030;-83
2020/12/30 04:26:36;;;;;;;5.18;1.75;;;;;;;4.76;72.33;99159.13;5112659;28;20027;-83
2020/12/30 04:29:01;;;;;;;4.05;2.35;;;;;;;4.61;72.84;99173.09;5112691;28;20041;-83
2020/12/30 04:31:26;;;;;;;3.75;2.00;;;;;;;4.68;72.78;99174.41;5112797;28;20016;-83
2020/12/30 04:33:52;;;;;;;4.57;1.85;;;;;;;4.68;72.97;99164.00;5112543;28;20035;-83
2020/12/30 04:36:17;;;;;;;6.20;1.85;;;;;;;4.69;72.84;99160.44;5129268;27;20064;-83
2020/12/30 04:38:42;;;;;;;3.40;1.70;;;;;;;4.72;73.36;99168.06;5132738;27;20298;-83
2020/12/30 04:41:11;;;;;;;9.10;2.63;;;;;;;4.65;72.48;99158.97;5132965;27;20023;-83
2020/12/30 04:43:39;;;;;;;4.53;1.90;;;;;;;4.69;72.80;99167.41;5132952;27;20031;-83
2020/12/30 04:46:05;;;;;;;4.03;1.92;;;;;;;4.42;72.99;99170.81;5131662;27;20015;-83
2020/12/30 04:48:34;;;;;;;3.85;1.98;;;;;;;4.56;73.15;99165.59;5132578;27;20030;-83
2020/12/30 04:51:01;;;;;;;6.32;2.25;;;;;;;4.65;72.78;99164.19;5132130;27;20030;-83
2020/12/30 04:53:27;;;;;;;3.05;1.90;;;;;;;4.66;72.84;99170.19;5132879;27;20481;-83
2020/12/30 04:55:58;;;;;;;2.45;1.50;;;;;;;4.64;73.20;99161.66;5132886;27;20030;-83
2020/12/30 04:58:27;;;;;;;4.70;2.13;;;;;;;4.72;72.86;99172.41;5132709;27;20098;-83
2020/12/30 05:00:53;;;;;;;6.25;2.05;;;;;;;4.72;73.00;99170.66;5132745;27;20050;-83
2020/12/30 05:03:26;;;;;;;6.57;2.55;;;;;;;4.52;71.87;99173.66;5131379;28;20051;-83
2020/12/30 05:05:53;;;;;;;5.82;2.40;;;;;;;4.36;73.05;99179.84;5114412;27;20505;-82
2020/12/30 05:08:19;;;;;;;5.13;1.75;;;;;;;4.30;73.00;99174.16;5112891;28;20023;-82
2020/12/30 05:10:45;;;;;;;6.13;2.30;;;;;;;4.42;73.22;99173.41;5112253;28;20031;-83
2020/12/30 05:13:10;;;;;;;5.72;2.08;;;;;;;4.49;72.59;99171.28;5112115;28;20165;-83
2020/12/30 05:15:37;;;;;;;3.38;2.03;;;;;;;4.51;72.60;99188.44;5112078;28;20103;-83
2020/12/30 05:18:04;;;;;;;2.50;1.60;;;;;;;4.56;73.24;99175.16;5112066;28;20104;-83
2020/12/30 05:20:35;;;;;;;2.33;1.45;;;;;;;4.66;72.89;99171.06;5112380;28;20370;-83
2020/12/30 05:23:05;;;;;;;4.93;1.90;;;;;;;4.65;72.22;99182.38;5111037;28;20019;-82
2020/12/30 05:25:34;;;;;;;4.22;1.67;;;;;;;4.52;72.52;99182.31;5112111;28;20466;-83
2020/12/30 05:28:02;;;;;;;3.90;1.60;;;;;;;4.41;72.71;99189.94;5112132;28;20024;-83
2020/12/30 05:30:30;;;;;;;3.67;1.40;;;;;;;4.44;72.80;99196.72;5112213;28;20031;-83
2020/12/30 05:32:55;;;;;;;7.68;1.95;;;;;;;4.41;72.56;99187.34;5111860;28;20435;-83
2020/12/30 05:35:21;;;;;;;5.65;1.58;;;;;;;4.52;73.19;99200.53;5113100;28;20098;-83
2020/12/30 05:37:47;;;;;;;6.28;1.58;;;;;;;4.52;73.14;99179.72;5111626;28;20192;-83
2020/12/30 05:40:21;;;;;;;5.47;1.90;;;;;;;4.46;72.77;99174.06;5111963;28;20385;-82
2020/12/30 05:42:47;;;;;;;4.32;1.45;;;;;;;4.63;72.97;99192.03;5112154;28;20019;-82
2020/12/30 05:45:24;;;;;;;8.40;1.77;;;;;;;4.55;73.57;99183.88;5111806;28;20024;-83
2020/12/30 05:47:50;;;;;;;7.97;1.88;;;;;;;4.56;73.78;99183.81;5111485;28;20477;-83
2020/12/30 05:50:23;;;;;;;5.78;1.42;;;;;;;4.56;72.77;99178.59;5111851;28;20031;-83
2020/12/30 05:52:50;;;;;;;4.03;1.60;;;;;;;4.68;72.92;99183.94;5114923;28;20023;-83
2020/12/30 05:55:15;;;;;;;8.68;1.50;;;;;;;4.64;72.84;99180.72;5132433;27;20063;-83
2020/12/30 05:57:41;;;;;;;4.78;1.77;;;;;;;4.50;73.21;99183.31;5132256;27;20110;-83
2020/12/30 06:00:11;;;;;;;6.25;1.35;;;;;;;4.53;72.22;99190.94;5132551;27;20509;-83
2020/12/30 06:02:54;;;;;;;9.45;1.90;;;;;;;4.43;73.09;99176.88;5134770;27;20058;-82
2020/12/30 06:05:22;;;;;;;8.02;1.88;;;;;;;4.44;72.97;99186.31;5136017;27;20027;-82
2020/12/30 06:07:52;;;;;;;5.63;2.22;;;;;;;4.50;73.55;99197.19;5135522;27;20015;-82
2020/12/30 06:10:22;;;;;;;8.65;1.70;;;;;;;4.55;73.49;99191.69;5132000;27;20034;-83
2020/12/30 06:12:47;;;;;;;13.48;2.95;;;;;;;4.56;73.42;99204.59;5126506;27;20114;-82
2020/12/30 06:15:15;;;;;;;4.88;1.02;;;;;;;4.61;73.32;99201.69;5134301;27;20102;-82
2020/12/30 06:17:51;;;;;;;7.00;1.77;;;;;;;4.63;72.79;99199.84;5114950;27;20024;-82
2020/12/30 06:20:22;;;;;;;2.25;1.35;;;;;;;4.66;72.95;99204.00;5129894;27;20126;-82
2020/12/30 06:22:56;;;;;;;4.95;1.42;;;;;;;4.60;72.85;99202.66;5135498;27;20030;-82
2020/12/30 06:25:23;;;;;;;6.10;2.08;;;;;;;4.51;72.49;99204.03;5133710;27;20481;-82
2020/12/30 06:27:50;;;;;;;5.22;1.58;;;;;;;4.53;72.97;99203.94;5132600;27;20066;-82
2020/12/30 06:30:15;;;;;;;4.68;1.52;;;;;;;4.30;71.38;99211.38;5124083;27;20019;-82
2020/12/30 06:32:41;;;;;;;11.02;2.38;;;;;;;4.29;73.64;99198.50;5125478;27;20039;-82
2020/12/30 06:35:06;;;;;;;7.60;1.63;;;;;;;4.33;72.36;99207.78;5118521;27;20028;-82
2020/12/30 06:37:34;;;;;;;8.80;1.77;;;;;;;4.32;73.43;99209.53;5114439;28;20501;-82
2020/12/30 06:40:26;;;;;;;15.23;2.45;;;;;;;4.21;72.06;99214.56;5114529;28;20031;-83
2020/12/30 06:42:57;;;;;;;7.38;1.85;;;;;;;4.01;72.47;99214.91;5114494;28;20016;-83
2020/12/30 06:45:49;;;;;;;6.90;2.30;;;;;;;4.08;73.68;99224.00;5127963;27;20027;-83
2020/12/30 06:48:15;;;;;;;5.35;1.95;;;;;;;4.02;72.39;99221.78;5116647;27;20126;-81
2020/12/30 06:50:41;;;;;;;5.95;2.17;;;;;;;4.02;72.63;99222.63;5133142;27;20066;-81
2020/12/30 06:53:29;;;;;;;10.48;1.90;;;;;;;4.11;72.93;99226.44;5121152;27;20059;-83
2020/12/30 06:55:56;;;;;;;11.30;1.85;;;;;;;3.98;72.93;99219.34;5134716;27;20442;-82
2020/12/30 06:58:42;;;;;;;6.45;2.25;;;;;;;3.96;71.14;99231.59;5127290;27;20050;-82
2020/12/30 07:01:08;;;;;;;12.60;2.88;;;;;;;3.71;72.54;99239.16;5134903;27;20023;-82
2020/12/30 07:03:33;;;;;;;11.60;2.78;;;;;;;3.42;73.15;99230.50;5119123;27;20041;-82
2020/12/30 07:06:37;;;;;;;17.00;3.15;;;;;;;3.46;74.74;99235.41;5120328;27;20158;-82
2020/12/30 07:09:06;;;;;;;12.40;2.53;;;;;;;3.58;73.98;99236.47;5070960;28;20142;-82
2020/12/30 07:11:53;;;;;;;9.90;2.15;;;;;;;3.79;72.99;99236.94;5070887;28;20081;-82
2020/12/30 07:14:23;;;;;;;6.28;2.13;;;;;;;3.88;73.57;99241.63;5100250;27;20031;-82
2020/12/30 07:16:51;;;;;;;7.65;2.90;;;;;;;3.96;73.35;99234.19;5133306;27;20041;-82
2020/12/30 07:19:22;;;;;;;11.70;2.95;;;;;;;4.01;74.31;99240.88;5127356;27;20024;-80
2020/12/30 07:21:49;;;;;;;8.32;2.28;;;;;;;3.98;72.79;99231.53;5117640;27;20488;-82
2020/12/30 07:24:22;;;;;;;7.40;2.60;;;;;;;3.79;72.00;99242.16;5113804;28;20122;-83
2020/12/30 07:26:51;;;;;;;9.65;2.42;;;;;;;3.48;73.06;99248.31;5113401;28;20023;-82
2020/12/30 07:29:17;;;;;;;12.05;2.75;;;;;;;3.45;73.12;99244.09;5113622;28;20123;-83
2020/12/30 07:31:48;;;;;;;10.95;2.25;;;;;;;3.54;72.64;99242.75;5127858;27;20110;-83
2020/12/30 07:34:23;;;;;;;8.55;2.58;;;;;;;3.50;73.89;99242.09;5120110;27;20027;-82
2020/12/30 07:36:49;;;;;;;10.70;2.72;;;;;;;3.51;73.26;99240.31;5133253;27;20595;-82
2020/12/30 07:39:21;;;;;;;14.07;3.33;;;;;;;3.40;74.31;99248.72;5123338;27;20027;-82
2020/12/30 07:41:46;;;;;;;16.70;3.28;;;;;;;3.40;74.26;99243.53;5119182;27;20411;-83
2020/12/30 07:44:12;;;;;;;11.00;2.92;;;;;;;3.53;73.41;99247.09;5126400;27;20102;-83
2020/12/30 07:46:37;;;;;;;13.60;2.95;;;;;;;3.65;74.13;99242.94;5115982;27;20038;-83
2020/12/30 07:49:17;;;;;;;10.80;3.67;;;;;;;3.68;73.01;99234.16;5133163;27;20388;-83
2020/12/30 07:51:51;;;;;;;11.90;3.03;;;;;;;3.56;72.59;99246.91;5113284;28;20023;-83
2020/12/30 07:54:18;;;;;;;8.75;2.47;;;;;;;3.58;72.58;99250.25;5113175;28;20118;-80
2020/12/30 07:56:44;;;;;;;15.60;2.67;;;;;;;3.24;72.35;99251.38;5112033;28;20051;-82
2020/12/30 07:59:17;;;;;;;10.98;2.85;;;;;;;3.34;72.40;99251.69;5114239;27;20028;-80
2020/12/30 08:02:01;;;;;;;24.23;3.60;;;;;;;3.06;73.97;99261.00;5114019;27;20035;-82
2020/12/30 08:04:29;;;;;;;9.38;2.47;;;;;;;3.34;74.12;99267.25;5122594;27;20096;-82
2020/12/30 08:06:55;;;;;;;10.43;3.15;;;;;;;3.40;73.66;99259.13;5117930;22;20057;-91
2020/12/30 08:09:28;;;;;;;20.08;3.55;;;;;;;3.41;74.05;99267.72;5006523;28;20036;-91
2020/12/30 08:11:59;;;;;;;22.17;3.63;;;;;;;3.56;74.18;99266.84;5030378;28;20017;-90
2020/12/30 08:14:27;;;;;;;20.45;6.95;;;;;;;3.62;73.81;99270.88;5014102;28;20406;-89
2020/12/30 08:17:06;;;;;;;16.02;3.47;;;;;;;3.66;73.99;99273.19;5016735;28;20468;-90
2020/12/30 08:19:35;;;;;;;15.48;2.65;;;;;;;3.76;73.83;99271.72;5051700;28;20075;-90
2020/12/30 08:22:25;;;;;;;13.73;3.03;;;;;;;3.81;73.34;99271.47;5033072;28;20398;-90
2020/12/30 08:24:51;;;;;;;20.90;3.58;;;;;;;3.75;73.60;99282.19;5033211;28;20438;-89
2020/12/30 08:27:18;;;;;;;10.35;2.58;;;;;;;3.57;73.87;99279.75;5050813;28;20053;-89
2020/12/30 08:29:45;;;;;;;13.80;3.75;;;;;;;3.79;73.28;99286.28;5051348;28;20035;-89
2020/12/30 08:32:16;;;;;;;13.32;2.80;;;;;;;3.87;73.58;99286.69;5051774;28;20024;-89
2020/12/30 08:34:48;;;;;;;6.45;2.22;;;;;;;3.90;73.56;99281.31;5032519;28;20051;-89
2020/12/30 08:37:20;;;;;;;9.55;2.67;;;;;;;3.60;74.25;99286.53;5033816;28;20029;-89
2020/12/30 08:39:51;;;;;;;12.07;3.50;;;;;;;3.40;73.44;99287.66;5033736;28;20067;-89
2020/12/30 08:42:50;;;;;;;11.88;2.45;;;;;;;3.51;74.33;99290.47;5033631;28;20044;-90
2020/12/30 08:45:20;;;;;;;18.08;4.15;;;;;;;3.17;74.07;99297.53;5007524;28;20029;-90
2020/12/30 08:47:53;;;;;;;14.00;3.10;;;;;;;3.12;73.63;99294.38;5033736;28;20154;-90
2020/12/30 08:50:20;;;;;;;18.10;3.70;;;;;;;3.20;75.50;99300.88;5047477;28;20542;-90
2020/12/30 08:52:46;;;;;;;10.30;2.83;;;;;;;3.44;75.20;99289.16;5033257;28;20407;-90
2020/12/30 08:55:11;;;;;;;17.42;3.95;;;;;;;3.62;74.45;99297.66;5033719;28;20068;-91
2020/12/30 08:57:43;;;;;;;18.33;3.53;;;;;;;3.68;74.01;99301.66;5051607;28;20111;-90
2020/12/30 09:00:18;;;;;;;11.70;3.20;;;;;;;3.74;74.23;99302.13;5051637;28;20051;-90
2020/12/30 09:02:44;;;;;;;10.80;3.55;;;;;;;3.89;74.33;99296.97;5047813;28;20031;-89
2020/12/30 09:05:10;;;;;;;11.27;3.65;;;;;;;3.89;74.39;99295.25;5032607;28;20147;-90
2020/12/30 09:07:37;;;;;;;10.95;3.53;;;;;;;4.00;74.15;99301.56;5051603;28;20025;-90
2020/12/30 09:10:12;;;;;;;10.00;3.50;;;;;;;4.02;74.37;99290.16;5051069;28;20109;-91
2020/12/30 09:12:38;;;;;;;13.48;3.15;;;;;;;4.14;73.92;99296.38;5051004;28;20112;-91
2020/12/30 09:15:05;;;;;;;12.90;3.50;;;;;;;4.20;74.73;99298.63;5039536;28;20032;-91
2020/12/30 09:17:31;;;;;;;15.75;3.45;;;;;;;4.11;72.10;99301.78;5061956;28;20031;-91
2020/12/30 09:20:16;;;;;;;11.02;3.72;;;;;;;4.03;72.71;99297.03;5034745;28;20108;-91
2020/12/30 09:22:43;;;;;;;18.42;3.53;;;;;;;3.90;73.19;99304.69;5045238;28;20037;-90
2020/12/30 09:25:27;;;;;;;11.30;2.45;;;;;;;4.19;74.29;99302.16;5033539;28;20025;-91
2020/12/30 09:27:53;;;;;;;14.13;3.30;;;;;;;4.08;71.77;99313.16;5032428;28;20031;-91
2020/12/30 09:30:22;;;;;;;18.65;3.45;;;;;;;3.72;73.52;99310.94;5050824;28;20029;-90
2020/12/30 09:32:48;;;;;;;17.13;3.78;;;;;;;3.85;74.90;99309.31;5050105;28;20021;-90
2020/12/30 09:35:16;;;;;;;15.50;3.47;;;;;;;4.05;74.50;99318.56;5032917;28;20406;-91
2020/12/30 09:37:50;;;;;;;17.08;3.28;;;;;;;4.25;73.69;99306.97;5036906;28;20376;-91
2020/12/30 09:40:16;;;;;;;11.05;2.50;;;;;;;4.34;73.64;99311.66;5035106;28;20091;-92
2020/12/30 09:42:43;;;;;;;6.95;2.67;;;;;;;4.29;74.10;99318.03;5036080;28;20487;-87
2020/12/30 09:45:10;;;;;;;9.50;2.60;;;;;;;4.28;74.61;99316.34;5047727;28;20056;-87
2020/12/30 09:47:37;;;;;;;9.60;1.83;;;;;;;4.37;73.97;99321.84;5034743;28;20151;-87
2020/12/30 09:50:05;;;;;;;10.38;2.75;;;;;;;4.48;73.85;99317.75;5035337;28;20032;-87
2020/12/30 09:52:41;;;;;;;10.73;2.70;;;;;;;4.40;72.94;99307.00;5051050;28;20032;-86
2020/12/30 09:55:07;;;;;;;11.90;2.40;;;;;;;3.84;74.15;99312.84;5052087;28;20033;-88
2020/12/30 09:57:34;;;;;;;9.63;2.83;;;;;;;3.77;75.08;99320.16;5054245;28;20056;-88
2020/12/30 10:00:00;;;;;;;5.93;2.50;;;;;;;4.15;74.44;99313.66;5054507;28;20103;-89
2020/12/30 10:02:26;;;;;;;8.10;2.50;;;;;;;4.42;74.10;99307.72;5053177;28;20108;-86
2020/12/30 10:04:52;;;;;;;11.82;3.25;;;;;;;4.50;74.49;99311.56;5048911;28;20146;-88
2020/12/30 10:07:17;;;;;;;11.32;2.47;;;;;;;4.88;73.81;99316.16;5055021;28;20043;-89
2020/12/30 10:09:43;;;;;;;5.22;1.80;;;;;;;5.18;73.80;99315.19;5054503;28;20387;-86
2020/12/30 10:12:08;;;;;;;10.50;2.17;;;;;;;5.74;71.61;99318.50;5036208;28;20068;-87
2020/12/30 10:14:34;;;;;;;10.07;2.55;;;;;;;6.35;70.79;99316.22;5054224;28;20056;-85
2020/12/30 10:16:59;;;;;;;11.55;2.60;;;;;;;6.25;68.79;99317.78;5036327;28;20104;-87
2020/12/30 10:19:24;;;;;;;11.27;3.47;;;;;;;6.89;68.50;99319.50;5052099;28;20025;-87
2020/12/30 10:21:50;;;;;;;8.95;2.45;;;;;;;7.17;67.95;99323.66;5051644;28;20427;-88
2020/12/30 10:24:15;;;;;;;9.02;2.42;;;;;;;7.72;65.76;99316.19;5052540;28;20017;-88
2020/12/30 10:26:40;;;;;;;4.03;1.95;;;;;;;8.48;64.01;99319.28;5053259;28;20033;-88
2020/12/30 10:29:06;;;;;;;9.98;2.00;;;;;;;9.36;61.00;99323.75;5053187;28;20029;-88
2020/12/30 10:31:31;;;;;;;9.10;2.17;;;;;;;9.95;60.06;99316.34;5028784;28;20060;-87
2020/12/30 10:33:56;;;;;;;6.75;2.53;;;;;;;9.84;59.38;99322.50;5052582;28;20490;-90
2020/12/30 10:36:28;;;;;;;8.95;2.53;;;;;;;10.97;58.12;99319.97;5053356;28;20021;-88
2020/12/30 10:38:54;;;;;;;5.97;2.28;;;;;;;11.55;55.43;99318.41;5053868;28;20032;-87
2020/12/30 10:41:19;;;;;;;9.38;1.95;;;;;;;11.64;54.14;99322.88;5019647;28;20025;-88
2020/12/30 10:43:44;;;;;;;8.13;2.00;;;;;;;12.05;52.72;99307.81;5027691;28;20541;-88
2020/12/30 10:46:14;;;;;;;7.57;1.88;;;;;;;12.33;53.77;99306.06;5051836;28;20052;-89
2020/12/30 10:48:44;;;;;;;8.85;2.15;;;;;;;12.32;52.84;99308.84;5052508;28;20252;-89
2020/12/30 10:51:11;;;;;;;7.38;2.30;;;;;;;12.29;53.81;99316.06;5052942;28;20021;-89
2020/12/30 10:53:36;;;;;;;5.72;2.22;;;;;;;12.32;54.50;99308.84;5035808;28;20032;-88
2020/12/30 10:56:02;;;;;;;7.95;2.22;;;;;;;12.25;53.71;99311.22;5055839;28;20021;-89
2020/12/30 10:58:29;;;;;;;6.05;2.58;;;;;;;12.27;54.40;99309.28;5040832;28;20107;-89
2020/12/30 11:00:55;;;;;;;8.80;2.15;;;;;;;12.47;52.63;99302.97;5041549;28;20518;-89
2020/12/30 11:03:21;;;;;;;6.18;2.10;;;;;;;12.92;54.33;99311.97;5060092;28;20063;-90
2020/12/30 11:05:46;;;;;;;9.82;2.30;;;;;;;13.31;52.12;99305.66;5060155;28;20033;-89
2020/12/30 11:08:11;;;;;;;8.05;2.63;;;;;;;13.33;51.82;99307.19;5061115;28;20100;-89
2020/12/30 11:10:36;;;;;;;7.53;2.28;;;;;;;12.63;53.01;99302.38;5055396;28;20041;-89
2020/12/30 11:13:02;;;;;;;6.50;2.60;;;;;;;12.06;53.90;99309.44;5035515;28;20029;-91
2020/12/30 11:15:27;;;;;;;14.40;2.45;;;;;;;11.50;56.36;99314.41;5035030;28;20041;-89
2020/12/30 11:17:53;;;;;;;6.90;2.40;;;;;;;11.23;57.90;99301.09;5048808;28;20040;-90
2020/12/30 11:20:18;;;;;;;12.57;2.50;;;;;;;10.79;58.04;99303.19;5023310;28;20102;-90
2020/12/30 11:22:43;;;;;;;13.27;3.00;;;;;;;10.55;57.96;99306.13;5033625;28;20090;-89
2020/12/30 11:25:09;;;;;;;8.82;2.65;;;;;;;10.35;60.53;99305.19;5036721;28;20391;-90
2020/12/30 11:27:34;;;;;;;8.27;2.17;;;;;;;10.19;59.82;99313.47;5034653;28;20047;-90
2020/12/30 11:29:59;;;;;;;10.25;3.08;;;;;;;9.98;60.82;99311.69;5052356;28;20029;-88
2020/12/30 11:32:25;;;;;;;5.85;2.47;;;;;;;9.85;60.89;99308.41;5053066;28;20479;-89
2020/12/30 11:34:50;;;;;;;7.38;2.22;;;;;;;9.82;60.93;99304.25;5052592;28;20032;-89
2020/12/30 11:37:15;;;;;;;12.13;3.25;;;;;;;9.87;62.55;99302.09;5052665;28;20017;-90
2020/12/30 11:39:41;;;;;;;10.75;3.83;;;;;;;9.58;61.34;99291.38;5035246;28;20406;-90
2020/12/30 11:42:06;;;;;;;19.17;3.15;;;;;;;9.28;61.77;99294.69;5052424;28;20043;-90